CFG8PZ LGIR-EDDF
Flight info
| Callsign | CFG8PZ |
|---|---|
| Flight time | N/A |
| Altitude | 36000 |
| Route | EPALO UM749 DIRMI UL613 XANIS DCT DIMIS DCT PETAK/N0435F380 DCT GLOMY DCT ELTIB DCT TUPUS DCT GORPA DCT SIMBA DCT AKINI T161 DEBHI DEBHI1B |
| Aircraft | A320/M-SDE3FGHIRWY/LB1 |
Departure
| Time | 2026-05-06 14:21 |
|---|---|
| Airport | Heraklion International Nikos Kazantzakis Airport (LGIR) |
Arrival
| Time | N/A |
|---|---|
| Airport | Frankfurt Main Airport (EDDF) |
| Time | Latitude | Longitude | Altitude | Speed | Heading |
|---|---|---|---|---|---|
| 2026-05-06 14:03 | 35.33869 | 25.17547 | 91 ft | 0 kts | 314° |
| 2026-05-06 14:16 | 35.33884 | 25.17528 | 92 ft | 4 kts | 314° |
| 2026-05-06 14:16 | 35.33906 | 25.17538 | 93 ft | 8 kts | 78° |
| 2026-05-06 14:16 | 35.33901 | 25.17651 | 91 ft | 16 kts | 96° |
| 2026-05-06 14:17 | 35.33891 | 25.17794 | 92 ft | 18 kts | 95° |
| 2026-05-06 14:17 | 35.33879 | 25.17951 | 92 ft | 19 kts | 95° |
| 2026-05-06 14:17 | 35.33869 | 25.18120 | 95 ft | 21 kts | 95° |
| 2026-05-06 14:17 | 35.33856 | 25.18310 | 92 ft | 26 kts | 95° |
| 2026-05-06 14:18 | 35.33839 | 25.18552 | 92 ft | 30 kts | 95° |
| 2026-05-06 14:18 | 35.33823 | 25.18794 | 90 ft | 25 kts | 95° |
| 2026-05-06 14:18 | 35.33821 | 25.18929 | 90 ft | 11 kts | 66° |
| 2026-05-06 14:18 | 35.33830 | 25.18946 | 90 ft | 0 kts | 55° |
| 2026-05-06 14:19 | 35.33844 | 25.18971 | 91 ft | 9 kts | 56° |
| 2026-05-06 14:20 | 35.33900 | 25.19032 | 89 ft | 11 kts | 343° |
| 2026-05-06 14:20 | 35.33909 | 25.18988 | 87 ft | 0 kts | 274° |
| 2026-05-06 14:20 | 35.33914 | 25.18919 | 90 ft | 33 kts | 275° |
| 2026-05-06 14:21 | 35.33955 | 25.18320 | 92 ft | 104 kts | 275° |
| 2026-05-06 14:21 | 35.34033 | 25.17195 | 91 ft | 159 kts | 275° |
| 2026-05-06 14:21 | 35.34127 | 25.15810 | 571 ft | 164 kts | 277° |
| 2026-05-06 14:21 | 35.34445 | 25.14477 | 1207 ft | 167 kts | 313° |
| 2026-05-06 14:22 | 35.35434 | 25.13780 | 1835 ft | 170 kts | 344° |
| 2026-05-06 14:22 | 35.36651 | 25.13386 | 2161 ft | 192 kts | 345° |
| 2026-05-06 14:22 | 35.38005 | 25.12945 | 2528 ft | 211 kts | 344° |
| 2026-05-06 14:22 | 35.39489 | 25.12437 | 2845 ft | 235 kts | 344° |
| 2026-05-06 14:23 | 35.41147 | 25.11868 | 3313 ft | 256 kts | 344° |
| 2026-05-06 14:23 | 35.42874 | 25.11274 | 4165 ft | 260 kts | 343° |
| 2026-05-06 14:23 | 35.44037 | 25.10870 | 4735 ft | 264 kts | 343° |
| 2026-05-06 14:23 | 35.45817 | 25.10240 | 5587 ft | 269 kts | 343° |
| 2026-05-06 14:24 | 35.47622 | 25.09599 | 6448 ft | 272 kts | 343° |
| 2026-05-06 14:24 | 35.50036 | 25.08730 | 7585 ft | 274 kts | 343° |
| 2026-05-06 14:24 | 35.51866 | 25.08079 | 8463 ft | 275 kts | 343° |
| 2026-05-06 14:24 | 35.53707 | 25.07420 | 9320 ft | 277 kts | 343° |
| 2026-05-06 14:25 | 35.54936 | 25.06979 | 9802 ft | 280 kts | 343° |
| 2026-05-06 14:25 | 35.56512 | 25.06413 | 10329 ft | 281 kts | 343° |
| 2026-05-06 14:25 | 35.58449 | 25.05720 | 10671 ft | 301 kts | 343° |
| 2026-05-06 14:25 | 35.60530 | 25.04977 | 11014 ft | 318 kts | 343° |
| 2026-05-06 14:26 | 35.62678 | 25.04210 | 11660 ft | 324 kts | 343° |
| 2026-05-06 14:26 | 35.64856 | 25.03434 | 12395 ft | 327 kts | 343° |
| 2026-05-06 14:26 | 35.67055 | 25.02647 | 13122 ft | 331 kts | 343° |
| 2026-05-06 14:26 | 35.69273 | 25.01849 | 13853 ft | 334 kts | 342° |
| 2026-05-06 14:27 | 35.71509 | 25.01039 | 14495 ft | 336 kts | 341° |
| 2026-05-06 14:27 | 35.73703 | 25.00139 | 15139 ft | 338 kts | 339° |
| 2026-05-06 14:27 | 35.75913 | 24.99123 | 15780 ft | 340 kts | 338° |
| 2026-05-06 14:27 | 35.78118 | 24.98054 | 16436 ft | 342 kts | 337° |
| 2026-05-06 14:28 | 35.80335 | 24.96966 | 17070 ft | 344 kts | 337° |
| 2026-05-06 14:28 | 35.82572 | 24.95876 | 17697 ft | 347 kts | 337° |
| 2026-05-06 14:28 | 35.84827 | 24.94791 | 18314 ft | 350 kts | 337° |
| 2026-05-06 14:28 | 35.87107 | 24.93709 | 18858 ft | 352 kts | 337° |
| 2026-05-06 14:29 | 35.89403 | 24.92627 | 19406 ft | 355 kts | 337° |
| 2026-05-06 14:29 | 35.91684 | 24.91552 | 19931 ft | 357 kts | 338° |
| 2026-05-06 14:29 | 35.94012 | 24.90457 | 20461 ft | 360 kts | 338° |
| 2026-05-06 14:29 | 35.96358 | 24.89352 | 21013 ft | 362 kts | 338° |
| 2026-05-06 14:30 | 35.98718 | 24.88236 | 21545 ft | 364 kts | 338° |
| 2026-05-06 14:30 | 36.01090 | 24.87112 | 22089 ft | 367 kts | 338° |
| 2026-05-06 14:30 | 36.03479 | 24.85979 | 22627 ft | 369 kts | 338° |
| 2026-05-06 14:30 | 36.05798 | 24.84611 | 23134 ft | 371 kts | 328° |
| 2026-05-06 14:31 | 36.07890 | 24.82738 | 23648 ft | 373 kts | 322° |
| 2026-05-06 14:31 | 36.09894 | 24.80745 | 24058 ft | 376 kts | 321° |
| 2026-05-06 14:31 | 36.11938 | 24.78716 | 24464 ft | 378 kts | 321° |
| 2026-05-06 14:31 | 36.13996 | 24.76672 | 24861 ft | 380 kts | 321° |
| 2026-05-06 14:32 | 36.16065 | 24.74617 | 25250 ft | 383 kts | 321° |
| 2026-05-06 14:32 | 36.18149 | 24.72549 | 25628 ft | 385 kts | 321° |
| 2026-05-06 14:32 | 36.20247 | 24.70468 | 26000 ft | 387 kts | 321° |
| 2026-05-06 14:32 | 36.22353 | 24.68378 | 26365 ft | 390 kts | 321° |
| 2026-05-06 14:33 | 36.24476 | 24.66271 | 26724 ft | 392 kts | 321° |
| 2026-05-06 14:33 | 36.26607 | 24.64155 | 27095 ft | 393 kts | 321° |
| 2026-05-06 14:33 | 36.29441 | 24.61329 | 27566 ft | 396 kts | 321° |
| 2026-05-06 14:33 | 36.30863 | 24.59909 | 27795 ft | 398 kts | 321° |
| 2026-05-06 14:34 | 36.33022 | 24.57753 | 28134 ft | 400 kts | 321° |
| 2026-05-06 14:34 | 36.35194 | 24.55584 | 28467 ft | 402 kts | 321° |
| 2026-05-06 14:34 | 36.37378 | 24.53402 | 28794 ft | 404 kts | 320° |
| 2026-05-06 14:34 | 36.39571 | 24.51206 | 29112 ft | 406 kts | 320° |
| 2026-05-06 14:35 | 36.41773 | 24.48998 | 29420 ft | 408 kts | 320° |
| 2026-05-06 14:35 | 36.43986 | 24.46774 | 29715 ft | 410 kts | 320° |
| 2026-05-06 14:35 | 36.46211 | 24.44539 | 30012 ft | 412 kts | 320° |
| 2026-05-06 14:35 | 36.48444 | 24.42297 | 30282 ft | 414 kts | 320° |
| 2026-05-06 14:36 | 36.50660 | 24.40069 | 30526 ft | 416 kts | 320° |
| 2026-05-06 14:36 | 36.52914 | 24.37804 | 30760 ft | 418 kts | 320° |
| 2026-05-06 14:36 | 36.55178 | 24.35532 | 30996 ft | 419 kts | 320° |
| 2026-05-06 14:36 | 36.57450 | 24.33251 | 31225 ft | 421 kts | 320° |
| 2026-05-06 14:37 | 36.59728 | 24.30960 | 31488 ft | 421 kts | 320° |
| 2026-05-06 14:37 | 36.62001 | 24.28672 | 31821 ft | 419 kts | 320° |
| 2026-05-06 14:37 | 36.64261 | 24.26396 | 32149 ft | 418 kts | 320° |